createdAt,value
2023-06-07T00:01:54.243Z,4.65
2023-06-07T00:04:21.041Z,4.18
2023-06-07T00:06:49.095Z,3.97
2023-06-07T00:09:15.719Z,4.50
2023-06-07T00:11:42.357Z,4.72
2023-06-07T00:14:08.944Z,4.50
2023-06-07T00:16:37.975Z,4.55
2023-06-07T00:19:04.840Z,4.88
2023-06-07T00:21:31.774Z,5.35
2023-06-07T00:23:59.803Z,4.35
2023-06-07T00:26:26.502Z,5.63
2023-06-07T00:28:53.537Z,4.47
2023-06-07T00:31:20.303Z,4.38
2023-06-07T00:33:47.295Z,4.70
2023-06-07T00:36:13.939Z,4.70
2023-06-07T00:38:40.547Z,4.60
2023-06-07T00:41:08.511Z,4.55
2023-06-07T00:43:35.135Z,5.03
2023-06-07T00:46:02.200Z,4.60
2023-06-07T00:48:29.616Z,4.75
2023-06-07T00:50:57.358Z,4.68
2023-06-07T00:53:24.516Z,5.28
2023-06-07T00:55:51.368Z,4.65
2023-06-07T00:58:20.623Z,5.50
2023-06-07T01:00:48.783Z,5.07
2023-06-07T01:03:15.572Z,5.70
2023-06-07T01:05:43.461Z,4.80
2023-06-07T01:08:11.820Z,5.40
2023-06-07T01:10:38.915Z,4.72
2023-06-07T01:13:10.541Z,5.00
2023-06-07T01:15:39.450Z,4.95
2023-06-07T01:18:06.901Z,5.22
2023-06-07T01:20:37.819Z,4.95
2023-06-07T01:23:07.838Z,4.95
2023-06-07T01:25:36.075Z,4.82
2023-06-07T01:28:03.262Z,5.05
2023-06-07T01:30:30.313Z,5.32
2023-06-07T01:33:01.546Z,5.50
2023-06-07T01:35:29.807Z,5.03
2023-06-07T01:37:57.569Z,5.47
2023-06-07T01:40:25.602Z,5.10
2023-06-07T01:42:56.762Z,5.18
2023-06-07T01:45:23.745Z,5.50
2023-06-07T01:47:50.585Z,5.50
2023-06-07T01:50:21.824Z,5.35
2023-06-07T01:52:48.501Z,5.18
2023-06-07T01:55:17.391Z,5.57
2023-06-07T01:57:52.835Z,5.32
2023-06-07T02:00:27.204Z,4.88
2023-06-07T02:02:57.208Z,6.03
2023-06-07T02:05:27.974Z,5.25
2023-06-07T02:07:57.644Z,5.40
2023-06-07T02:10:27.790Z,6.18
2023-06-07T02:12:55.793Z,5.60
2023-06-07T02:15:23.869Z,6.38
2023-06-07T02:17:52.112Z,6.30
2023-06-07T02:20:21.069Z,5.53
2023-06-07T02:22:47.893Z,6.50
2023-06-07T02:25:14.549Z,6.03
2023-06-07T02:27:41.200Z,6.03
2023-06-07T02:30:09.091Z,5.95
2023-06-07T02:32:37.148Z,5.70
2023-06-07T02:35:04.170Z,6.13
2023-06-07T02:37:31.123Z,6.95
2023-06-07T02:39:59.394Z,6.38
2023-06-07T02:42:26.366Z,6.10
2023-06-07T02:44:56.076Z,6.32
2023-06-07T02:47:22.768Z,6.30
2023-06-07T02:49:51.777Z,5.97
2023-06-07T02:52:18.499Z,6.40
2023-06-07T02:54:45.121Z,7.03
2023-06-07T02:57:11.783Z,6.25
2023-06-07T02:59:38.514Z,6.40
2023-06-07T03:02:05.726Z,6.65
2023-06-07T03:04:32.574Z,6.95
2023-06-07T03:07:02.564Z,6.05
2023-06-07T03:09:35.310Z,6.57
2023-06-07T03:12:01.984Z,6.40
2023-06-07T03:14:35.004Z,6.40
2023-06-07T03:17:01.866Z,6.40
2023-06-07T03:19:29.851Z,7.43
2023-06-07T03:21:58.033Z,7.38
2023-06-07T03:24:26.026Z,6.63
2023-06-07T03:26:52.724Z,6.38
2023-06-07T03:29:19.590Z,6.70
2023-06-07T03:31:46.354Z,6.80
2023-06-07T03:34:17.224Z,6.25
2023-06-07T03:36:44.280Z,7.32
2023-06-07T03:39:15.608Z,6.80
2023-06-07T03:41:44.382Z,6.53
2023-06-07T03:44:15.854Z,6.85
2023-06-07T03:46:42.716Z,6.70
2023-06-07T03:49:09.996Z,7.20
2023-06-07T03:51:36.744Z,7.05
2023-06-07T03:54:04.451Z,7.93
2023-06-07T03:56:31.771Z,7.28
2023-06-07T03:59:00.147Z,7.30
2023-06-07T04:01:27.295Z,7.30
2023-06-07T04:03:56.925Z,7.10
2023-06-07T04:06:24.598Z,6.65
2023-06-07T04:08:51.789Z,7.05
2023-06-07T04:11:18.486Z,7.15
2023-06-07T04:13:45.102Z,6.85
2023-06-07T04:16:13.614Z,7.95
2023-06-07T04:18:43.319Z,6.93
2023-06-07T04:21:10.179Z,6.88
2023-06-07T04:23:39.572Z,7.20
2023-06-07T04:26:06.330Z,7.18
2023-06-07T04:28:33.457Z,7.75
2023-06-07T04:31:04.681Z,7.05
2023-06-07T04:33:33.203Z,6.85
2023-06-07T04:35:59.904Z,7.57
2023-06-07T04:38:27.475Z,7.40
2023-06-07T04:41:00.050Z,7.47
2023-06-07T04:43:33.534Z,7.38
2023-06-07T04:46:00.189Z,7.45
2023-06-07T04:48:29.786Z,7.68
2023-06-07T04:50:58.873Z,7.85
2023-06-07T04:53:25.555Z,7.65
2023-06-07T04:55:52.321Z,7.85
2023-06-07T04:58:20.203Z,6.60
2023-06-07T05:00:46.880Z,7.15
2023-06-07T05:03:16.703Z,6.97
2023-06-07T05:05:44.029Z,7.13
2023-06-07T05:08:12.021Z,7.07
2023-06-07T05:10:38.750Z,7.25
2023-06-07T05:13:05.690Z,7.45
2023-06-07T05:15:32.420Z,7.03
2023-06-07T05:17:59.501Z,6.93
2023-06-07T05:20:26.428Z,7.43
2023-06-07T05:22:55.378Z,7.07
2023-06-07T05:25:23.395Z,7.57
2023-06-07T05:27:59.929Z,8.10
2023-06-07T05:30:32.122Z,7.45
2023-06-07T05:32:58.975Z,7.57
2023-06-07T05:35:26.256Z,7.93
2023-06-07T05:37:52.955Z,7.68
2023-06-07T05:40:20.308Z,7.03
2023-06-07T05:42:49.405Z,6.95
2023-06-07T05:45:16.460Z,7.38
2023-06-07T05:47:43.362Z,8.48
2023-06-07T05:50:10.644Z,7.90
2023-06-07T05:52:38.138Z,7.53
2023-06-07T05:55:05.541Z,7.47
2023-06-07T05:57:32.136Z,7.43
2023-06-07T06:00:00.157Z,8.23
2023-06-07T06:02:27.200Z,7.15
2023-06-07T06:04:54.035Z,7.68
2023-06-07T06:07:20.757Z,7.53
2023-06-07T06:09:47.428Z,7.47
2023-06-07T06:12:14.092Z,7.13
2023-06-07T06:14:40.786Z,7.72
2023-06-07T06:17:08.992Z,7.55
2023-06-07T06:19:35.796Z,6.93
2023-06-07T06:22:02.630Z,7.63
2023-06-07T06:24:29.313Z,7.82
2023-06-07T06:26:56.146Z,7.38
2023-06-07T06:29:24.741Z,7.35
2023-06-07T06:31:52.478Z,7.05
2023-06-07T06:34:20.477Z,7.88
2023-06-07T06:36:47.192Z,7.35
2023-06-07T06:39:21.048Z,7.32
2023-06-07T06:41:47.989Z,7.82
2023-06-07T06:44:21.192Z,7.22
2023-06-07T06:46:47.975Z,7.40
2023-06-07T06:49:14.932Z,7.40
2023-06-07T06:51:45.966Z,7.35
2023-06-07T06:54:12.906Z,6.97
2023-06-07T06:56:39.896Z,7.13
2023-06-07T06:59:06.645Z,6.90
2023-06-07T07:01:46.014Z,6.90
2023-06-07T07:04:12.928Z,6.97
2023-06-07T07:06:40.072Z,6.30
2023-06-07T07:09:08.208Z,7.32
2023-06-07T07:11:35.985Z,6.80
2023-06-07T07:14:03.316Z,7.50
2023-06-07T07:16:30.729Z,6.78
2023-06-07T07:18:57.611Z,6.80
2023-06-07T07:21:25.378Z,7.18
2023-06-07T07:23:52.132Z,7.45
2023-06-07T07:26:20.307Z,6.75
2023-06-07T07:28:46.937Z,6.88
2023-06-07T07:31:16.361Z,6.35
2023-06-07T07:33:43.240Z,7.60
2023-06-07T07:36:11.050Z,6.82
2023-06-07T07:38:38.929Z,6.78
2023-06-07T07:41:05.990Z,6.43
2023-06-07T07:43:37.826Z,7.03
2023-06-07T07:46:05.107Z,6.95
2023-06-07T07:48:32.061Z,7.25
2023-06-07T07:50:58.775Z,7.20
2023-06-07T07:53:28.649Z,7.25
2023-06-07T07:55:55.355Z,6.90
2023-06-07T07:58:21.955Z,6.70
2023-06-07T08:00:49.925Z,6.93
2023-06-07T08:03:16.698Z,6.90
2023-06-07T08:05:43.670Z,6.45
2023-06-07T08:08:10.437Z,6.85
2023-06-07T08:10:37.535Z,6.47
2023-06-07T08:13:04.212Z,7.43
2023-06-07T08:15:30.921Z,6.95
2023-06-07T08:17:58.971Z,7.05
2023-06-07T08:20:25.715Z,6.30
2023-06-07T08:22:52.367Z,7.45
2023-06-07T08:25:19.206Z,6.63
2023-06-07T08:27:45.926Z,6.95
2023-06-07T08:30:12.861Z,7.40
2023-06-07T08:32:39.819Z,7.25
2023-06-07T08:35:09.345Z,6.90
2023-06-07T08:37:36.049Z,6.43
2023-06-07T08:40:03.521Z,7.18
2023-06-07T08:42:33.344Z,6.85
2023-06-07T08:45:01.049Z,7.18
2023-06-07T08:47:29.162Z,6.68
2023-06-07T08:49:56.967Z,7.05
2023-06-07T08:52:25.740Z,7.00
2023-06-07T08:54:55.921Z,6.88
2023-06-07T08:57:23.713Z,7.05
2023-06-07T08:59:50.971Z,6.80
2023-06-07T09:02:18.255Z,6.93
2023-06-07T09:04:45.508Z,6.03
2023-06-07T09:07:13.368Z,7.28
2023-06-07T09:09:45.767Z,6.90
2023-06-07T09:12:12.679Z,7.10
2023-06-07T09:14:39.857Z,7.63
2023-06-07T09:17:06.801Z,6.65
2023-06-07T09:19:34.912Z,7.03
2023-06-07T09:22:02.266Z,6.70
2023-06-07T09:24:29.839Z,6.57
2023-06-07T09:26:58.338Z,7.00
2023-06-07T09:29:25.277Z,7.07
2023-06-07T09:31:52.059Z,7.43
2023-06-07T09:34:24.287Z,6.97
2023-06-07T09:36:53.506Z,7.13
2023-06-07T09:39:20.782Z,7.43
2023-06-07T09:41:47.472Z,7.03
2023-06-07T09:44:23.526Z,7.07
2023-06-07T09:46:50.858Z,7.00
2023-06-07T09:49:23.365Z,7.05
2023-06-07T09:51:52.444Z,7.18
2023-06-07T09:54:34.801Z,6.82
2023-06-07T09:57:01.553Z,7.57
2023-06-07T09:59:29.612Z,7.53
2023-06-07T10:01:56.331Z,8.02
2023-06-07T10:04:23.176Z,8.23
2023-06-07T10:06:51.663Z,8.23
2023-06-07T10:09:18.859Z,8.60
2023-06-07T10:11:48.174Z,9.10
2023-06-07T10:14:18.299Z,7.43
2023-06-07T10:16:52.834Z,8.23
2023-06-07T10:19:24.243Z,8.65
2023-06-07T10:21:52.197Z,8.43
2023-06-07T10:24:24.891Z,8.50
2023-06-07T10:26:55.203Z,7.75
2023-06-07T10:29:30.815Z,8.50
2023-06-07T10:32:07.624Z,8.52
2023-06-07T10:34:36.204Z,8.38
2023-06-07T10:37:03.736Z,9.50
2023-06-07T10:39:30.494Z,8.95
2023-06-07T10:41:57.781Z,8.98
2023-06-07T10:44:25.338Z,8.98
2023-06-07T10:47:29.128Z,9.40
2023-06-07T10:49:55.964Z,8.63
2023-06-07T10:52:23.837Z,8.07
2023-06-07T10:54:51.988Z,7.93
2023-06-07T10:57:35.401Z,8.63
2023-06-07T11:00:26.515Z,8.38
2023-06-07T11:03:35.018Z,8.55
2023-06-07T11:06:09.764Z,8.65
2023-06-07T11:08:37.162Z,9.30
2023-06-07T11:11:05.197Z,7.75
2023-06-07T11:14:09.596Z,9.07
2023-06-07T11:16:36.866Z,9.30
2023-06-07T11:19:04.976Z,9.18
2023-06-07T11:21:59.527Z,8.00
2023-06-07T11:24:26.268Z,8.57
2023-06-07T11:26:52.996Z,8.20
2023-06-07T11:29:20.110Z,8.30
2023-06-07T11:31:47.037Z,8.77
2023-06-07T11:34:13.947Z,7.72
2023-06-07T11:36:42.181Z,8.95
2023-06-07T11:39:09.006Z,8.13
2023-06-07T11:41:35.853Z,8.50
2023-06-07T11:44:02.814Z,8.85
2023-06-07T11:46:32.393Z,8.63
2023-06-07T11:49:03.630Z,8.93
2023-06-07T11:51:30.417Z,8.65
2023-06-07T11:53:59.703Z,8.45
2023-06-07T11:56:26.551Z,7.95
2023-06-07T11:58:55.834Z,8.40
2023-06-07T12:01:22.943Z,8.32
2023-06-07T12:03:50.757Z,8.50
2023-06-07T12:06:17.464Z,8.50
2023-06-07T12:08:44.316Z,8.80
2023-06-07T12:11:12.263Z,8.68
2023-06-07T12:13:39.108Z,8.50
2023-06-07T12:16:06.707Z,8.27
2023-06-07T12:18:33.897Z,7.82
2023-06-07T12:21:05.418Z,8.68
2023-06-07T12:23:32.201Z,8.13
2023-06-07T12:26:09.111Z,8.27
2023-06-07T12:28:37.792Z,8.07
2023-06-07T12:31:04.627Z,9.10
2023-06-07T12:33:31.778Z,9.05
2023-06-07T12:35:58.410Z,8.13
2023-06-07T12:38:25.230Z,8.40
2023-06-07T12:40:51.836Z,8.32
2023-06-07T12:43:18.541Z,9.20
2023-06-07T12:45:46.629Z,8.25
2023-06-07T12:48:13.419Z,8.40
2023-06-07T12:50:40.423Z,7.90
2023-06-07T12:53:07.172Z,7.63
2023-06-07T12:55:33.833Z,7.03
2023-06-07T12:58:00.603Z,7.85
2023-06-07T13:00:27.494Z,7.47
2023-06-07T13:02:55.673Z,7.13
2023-06-07T13:05:23.514Z,7.85
2023-06-07T13:07:50.220Z,7.63
2023-06-07T13:10:17.035Z,7.57
2023-06-07T13:12:43.769Z,7.38
2023-06-07T13:15:12.986Z,7.05
2023-06-07T13:17:39.860Z,7.10
2023-06-07T13:20:09.976Z,6.97
2023-06-07T13:22:36.911Z,7.88
2023-06-07T13:25:03.724Z,7.43
2023-06-07T13:27:30.469Z,7.32
2023-06-07T13:29:57.500Z,8.02
2023-06-07T13:32:24.375Z,7.40
2023-06-07T13:34:51.233Z,7.28
2023-06-07T13:37:19.414Z,6.93
2023-06-07T13:39:46.163Z,7.82
2023-06-07T13:42:12.990Z,6.97
2023-06-07T13:44:40.244Z,6.63
2023-06-07T13:47:08.262Z,6.85
2023-06-07T13:49:35.234Z,7.80
2023-06-07T13:52:02.121Z,7.75
2023-06-07T13:54:30.260Z,6.38
2023-06-07T13:56:57.042Z,6.82
2023-06-07T13:59:25.450Z,7.18
2023-06-07T14:01:52.560Z,6.65
2023-06-07T14:04:19.605Z,6.75
2023-06-07T14:06:46.436Z,6.60
2023-06-07T14:09:13.322Z,5.55
2023-06-07T14:11:41.480Z,5.88
2023-06-07T14:14:08.074Z,6.03
2023-06-07T14:16:34.724Z,5.25
2023-06-07T14:19:01.579Z,5.63
2023-06-07T14:21:28.306Z,5.40
2023-06-07T14:23:55.076Z,5.28
2023-06-07T14:26:21.926Z,4.40
2023-06-07T14:28:50.106Z,5.25
2023-06-07T14:31:17.018Z,4.38
2023-06-07T14:33:43.849Z,4.60
2023-06-07T14:36:10.773Z,4.25
2023-06-07T14:38:37.616Z,4.00
2023-06-07T14:41:04.396Z,4.00
2023-06-07T14:43:31.036Z,4.60
2023-06-07T14:45:59.441Z,4.25
2023-06-07T14:48:27.172Z,4.05
2023-06-07T14:50:54.088Z,4.43
2023-06-07T14:53:20.928Z,4.10
2023-06-07T14:55:48.032Z,3.72
2023-06-07T14:58:14.701Z,3.55
2023-06-07T15:00:41.386Z,3.80
2023-06-07T15:03:09.574Z,3.88
2023-06-07T15:05:36.276Z,3.80
2023-06-07T15:08:05.821Z,3.80
2023-06-07T15:10:32.648Z,3.60
2023-06-07T15:12:59.267Z,3.60
2023-06-07T15:15:25.972Z,3.83
2023-06-07T15:17:53.535Z,4.03
2023-06-07T15:20:24.279Z,4.07
2023-06-07T15:22:52.144Z,3.78
2023-06-07T15:25:18.930Z,4.95
2023-06-07T15:27:48.297Z,4.07
2023-06-07T15:30:15.399Z,4.15
2023-06-07T15:32:42.135Z,4.47
2023-06-07T15:35:12.720Z,4.35
2023-06-07T15:37:41.873Z,4.30
2023-06-07T15:40:09.293Z,4.47
2023-06-07T15:42:37.149Z,4.07
2023-06-07T15:45:04.872Z,4.43
2023-06-07T15:47:31.705Z,4.50
2023-06-07T15:49:58.212Z,4.40
2023-06-07T15:52:24.881Z,4.50
2023-06-07T15:54:52.925Z,4.68
2023-06-07T15:57:19.562Z,4.45
2023-06-07T15:59:46.165Z,4.45
2023-06-07T16:02:12.784Z,4.43
2023-06-07T16:04:39.899Z,4.70
2023-06-07T16:07:06.788Z,4.25
2023-06-07T16:09:33.504Z,4.50
2023-06-07T16:12:01.619Z,4.80
2023-06-07T16:14:31.539Z,4.85
2023-06-07T16:16:58.183Z,5.00
2023-06-07T16:19:24.821Z,4.85
2023-06-07T16:21:51.449Z,4.63
2023-06-07T16:24:18.215Z,4.85
2023-06-07T16:26:45.210Z,4.28
2023-06-07T16:29:13.186Z,4.15
2023-06-07T16:31:39.857Z,4.57
2023-06-07T16:34:06.643Z,4.38
2023-06-07T16:36:33.499Z,4.78
2023-06-07T16:39:00.267Z,4.90
2023-06-07T16:41:27.342Z,4.93
2023-06-07T16:43:54.455Z,5.00
2023-06-07T16:46:22.646Z,4.80
2023-06-07T16:48:49.400Z,4.68
2023-06-07T16:51:16.175Z,4.30
2023-06-07T16:53:42.822Z,4.63
2023-06-07T16:56:09.570Z,4.63
2023-06-07T16:58:44.508Z,4.93
2023-06-07T17:01:11.322Z,4.55
2023-06-07T17:03:39.822Z,5.00
2023-06-07T17:06:07.125Z,4.30
2023-06-07T17:08:33.758Z,4.68
2023-06-07T17:11:00.457Z,4.82
2023-06-07T17:13:27.141Z,4.57
2023-06-07T17:15:54.003Z,5.03
2023-06-07T17:18:20.708Z,4.90
2023-06-07T17:20:49.556Z,4.80
2023-06-07T17:23:16.415Z,4.18
2023-06-07T17:25:43.058Z,4.43
2023-06-07T17:28:09.707Z,4.95
2023-06-07T17:30:38.898Z,5.03
2023-06-07T17:33:06.407Z,4.18
2023-06-07T17:35:33.458Z,4.53
2023-06-07T17:38:01.832Z,4.30
2023-06-07T17:40:31.354Z,4.37
2023-06-07T17:42:58.199Z,4.93
2023-06-07T17:45:26.456Z,4.40
2023-06-07T17:47:54.658Z,4.25
2023-06-07T17:50:33.038Z,4.13
2023-06-07T17:53:09.486Z,4.10
2023-06-07T17:55:36.124Z,4.13
2023-06-07T17:58:02.976Z,3.80
2023-06-07T18:00:29.740Z,4.45
2023-06-07T18:02:56.660Z,19.23
2023-06-07T18:05:23.809Z,10.77
2023-06-07T18:07:50.573Z,4.80
2023-06-07T18:10:18.851Z,4.85
2023-06-07T18:12:45.556Z,6.68
2023-06-07T18:15:12.196Z,9.48
2023-06-07T18:17:40.839Z,4.10
2023-06-07T18:20:09.278Z,3.80
2023-06-07T18:22:36.269Z,4.15
2023-06-07T18:25:03.194Z,3.70
2023-06-07T18:27:31.288Z,3.90
2023-06-07T18:29:57.933Z,3.75
2023-06-07T18:32:24.602Z,3.90
2023-06-07T18:34:51.337Z,4.03
2023-06-07T18:37:18.010Z,3.72
2023-06-07T18:39:44.760Z,4.38
2023-06-07T18:42:13.069Z,3.85
2023-06-07T18:44:42.404Z,3.78
2023-06-07T18:47:09.305Z,4.45
2023-06-07T18:49:36.022Z,4.00
2023-06-07T18:52:02.927Z,3.83
2023-06-07T18:54:29.677Z,4.03
2023-06-07T18:56:58.965Z,3.70
2023-06-07T18:59:25.636Z,4.43
2023-06-07T19:01:53.735Z,4.30
2023-06-07T19:04:20.665Z,3.90
2023-06-07T19:06:50.503Z,4.30
2023-06-07T19:09:18.404Z,3.67
2023-06-07T19:11:45.832Z,4.18
2023-06-07T19:14:12.656Z,3.65
2023-06-07T19:16:40.463Z,4.43
2023-06-07T19:19:08.459Z,3.90
2023-06-07T19:21:35.182Z,3.95
2023-06-07T19:24:04.258Z,4.18
2023-06-07T19:26:31.250Z,3.90
2023-06-07T19:28:58.234Z,4.20
2023-06-07T19:31:24.947Z,3.85
2023-06-07T19:33:54.079Z,4.22
2023-06-07T19:36:22.164Z,3.60
2023-06-07T19:38:48.861Z,4.25
2023-06-07T19:41:15.616Z,4.40
2023-06-07T19:43:42.374Z,4.10
2023-06-07T19:46:09.133Z,3.97
2023-06-07T19:48:38.837Z,4.28
2023-06-07T19:51:05.472Z,4.03
2023-06-07T19:53:33.429Z,4.05
2023-06-07T19:56:00.157Z,4.03
2023-06-07T19:58:26.798Z,4.40
2023-06-07T20:00:53.373Z,4.13
2023-06-07T20:03:20.196Z,3.60
2023-06-07T20:05:46.925Z,3.80
2023-06-07T20:08:13.695Z,4.22
2023-06-07T20:10:41.710Z,4.20
2023-06-07T20:13:08.429Z,3.35
2023-06-07T20:15:35.004Z,3.92
2023-06-07T20:18:01.678Z,4.38
2023-06-07T20:20:31.244Z,4.47
2023-06-07T20:22:58.730Z,4.70
2023-06-07T20:25:25.360Z,4.93
2023-06-07T20:27:53.349Z,4.78
2023-06-07T20:30:22.883Z,4.68
2023-06-07T20:32:49.833Z,4.28
2023-06-07T20:35:16.610Z,4.82
2023-06-07T20:37:43.385Z,4.60
2023-06-07T20:40:11.216Z,4.53
2023-06-07T20:42:37.904Z,4.90
2023-06-07T20:45:07.178Z,4.90
2023-06-07T20:47:35.844Z,4.68
2023-06-07T20:50:02.766Z,4.45
2023-06-07T20:52:29.482Z,4.85
2023-06-07T20:54:56.088Z,4.80
2023-06-07T20:57:22.933Z,5.10
2023-06-07T20:59:49.612Z,5.20
2023-06-07T21:02:17.586Z,5.07
2023-06-07T21:04:44.213Z,5.60
2023-06-07T21:07:10.952Z,5.50
2023-06-07T21:09:37.626Z,5.38
2023-06-07T21:12:07.491Z,5.45
2023-06-07T21:14:34.120Z,5.50
2023-06-07T21:17:01.781Z,5.53
2023-06-07T21:19:29.701Z,6.25
2023-06-07T21:21:56.320Z,5.38
2023-06-07T21:24:23.062Z,5.80
2023-06-07T21:26:49.713Z,5.60
2023-06-07T21:29:16.380Z,5.38
2023-06-07T21:31:43.052Z,5.28
2023-06-07T21:34:09.696Z,6.00
2023-06-07T21:36:37.689Z,5.85
2023-06-07T21:39:04.441Z,6.18
2023-06-07T21:41:31.169Z,5.70
2023-06-07T21:43:57.966Z,5.40
2023-06-07T21:46:24.614Z,4.80
2023-06-07T21:48:51.326Z,5.13
2023-06-07T21:51:18.173Z,5.13
2023-06-07T21:53:46.193Z,4.53
2023-06-07T21:56:12.967Z,4.38
2023-06-07T21:58:39.605Z,3.67
2023-06-07T22:01:06.271Z,3.72
2023-06-07T22:03:33.438Z,4.10
2023-06-07T22:06:00.155Z,3.45
2023-06-07T22:08:26.880Z,3.80
2023-06-07T22:10:56.748Z,3.55
2023-06-07T22:13:23.494Z,3.90
2023-06-07T22:15:50.575Z,3.55
2023-06-07T22:18:18.042Z,3.45
2023-06-07T22:20:44.853Z,4.00
2023-06-07T22:23:11.861Z,3.58
2023-06-07T22:25:41.525Z,3.40
2023-06-07T22:28:10.963Z,3.38
2023-06-07T22:30:37.789Z,3.85
2023-06-07T22:33:04.510Z,3.50
2023-06-07T22:35:31.200Z,4.03
2023-06-07T22:37:57.853Z,4.03
2023-06-07T22:40:24.548Z,4.22
2023-06-07T22:42:51.335Z,3.95
2023-06-07T22:45:19.435Z,3.90
2023-06-07T22:47:46.196Z,3.78
2023-06-07T22:50:12.832Z,3.88
2023-06-07T22:52:39.495Z,3.78
2023-06-07T22:55:06.863Z,3.92
2023-06-07T22:57:34.746Z,4.00
2023-06-07T23:00:01.422Z,4.32
2023-06-07T23:02:29.472Z,3.72
2023-06-07T23:04:56.238Z,3.88
2023-06-07T23:07:22.888Z,3.92
2023-06-07T23:09:49.782Z,3.85
2023-06-07T23:12:16.430Z,4.00
2023-06-07T23:14:43.149Z,4.97
2023-06-07T23:17:09.794Z,4.03
2023-06-07T23:19:37.769Z,3.97
2023-06-07T23:22:04.607Z,4.50
2023-06-07T23:24:31.197Z,4.15
2023-06-07T23:26:57.849Z,3.78
2023-06-07T23:29:24.546Z,4.68
2023-06-07T23:31:51.158Z,4.22
2023-06-07T23:34:17.896Z,4.10
2023-06-07T23:36:45.945Z,4.22
2023-06-07T23:39:12.517Z,3.70
2023-06-07T23:41:39.200Z,4.38
2023-06-07T23:44:06.386Z,4.07
2023-06-07T23:46:33.196Z,4.35
2023-06-07T23:48:59.833Z,4.13
2023-06-07T23:51:26.462Z,4.07
2023-06-07T23:53:54.866Z,4.00
2023-06-07T23:56:21.640Z,4.70
2023-06-07T23:58:48.284Z,4.65
